createdAt,value
2022-11-26T00:01:13.371Z,30.83
2022-11-26T00:03:40.182Z,27.80
2022-11-26T00:06:23.322Z,25.77
2022-11-26T00:08:50.163Z,20.60
2022-11-26T00:11:17.426Z,26.07
2022-11-26T00:13:44.236Z,35.13
2022-11-26T00:16:13.185Z,27.13
2022-11-26T00:18:39.996Z,31.90
2022-11-26T00:21:17.235Z,32.93
2022-11-26T00:23:44.739Z,32.63
2022-11-26T00:26:16.344Z,32.60
2022-11-26T00:28:49.587Z,32.40
2022-11-26T00:31:16.997Z,31.63
2022-11-26T00:33:43.905Z,25.37
2022-11-26T00:36:17.961Z,34.23
2022-11-26T00:38:45.947Z,30.23
2022-11-26T00:41:16.955Z,30.60
2022-11-26T00:43:44.271Z,40.03
2022-11-26T00:46:13.361Z,39.47
2022-11-26T00:48:40.687Z,36.23
2022-11-26T00:51:12.915Z,34.27
2022-11-26T00:53:41.695Z,32.17
2022-11-26T00:56:13.397Z,38.07
2022-11-26T00:58:40.162Z,38.23
2022-11-26T01:01:10.392Z,27.77
2022-11-26T01:03:37.184Z,43.40
2022-11-26T01:06:04.018Z,38.53
2022-11-26T01:08:33.708Z,34.33
2022-11-26T01:11:03.813Z,40.60
2022-11-26T01:13:31.596Z,35.40
2022-11-26T01:16:00.835Z,36.90
2022-11-26T01:18:28.698Z,32.87
2022-11-26T01:20:55.435Z,32.90
2022-11-26T01:23:22.160Z,32.90
2022-11-26T01:25:48.891Z,39.10
2022-11-26T01:28:18.780Z,33.03
2022-11-26T01:30:45.780Z,29.70
2022-11-26T01:33:12.651Z,29.30
2022-11-26T01:35:39.611Z,37.93
2022-11-26T01:38:06.338Z,35.73
2022-11-26T01:40:42.450Z,34.33
2022-11-26T01:43:16.313Z,42.87
2022-11-26T01:45:45.032Z,39.23
2022-11-26T01:48:25.806Z,44.07
2022-11-26T01:50:57.147Z,38.40
2022-11-26T01:53:33.917Z,29.53
2022-11-26T01:56:06.206Z,34.33
2022-11-26T01:58:40.435Z,24.97
2022-11-26T02:01:09.067Z,35.07
2022-11-26T02:03:40.669Z,32.20
2022-11-26T02:06:13.275Z,27.23
2022-11-26T02:08:40.072Z,25.77
2022-11-26T02:11:15.051Z,32.07
2022-11-26T02:13:42.212Z,23.77
2022-11-26T02:16:16.605Z,24.20
2022-11-26T02:18:50.351Z,22.87
2022-11-26T02:21:22.271Z,21.40
2022-11-26T02:24:22.754Z,20.70
2022-11-26T02:27:21.143Z,24.87
2022-11-26T02:30:14.631Z,32.47
2022-11-26T02:32:52.183Z,19.97
2022-11-26T02:35:25.493Z,24.67
2022-11-26T02:37:55.707Z,27.20
2022-11-26T02:40:23.602Z,26.60
2022-11-26T02:42:50.502Z,29.90
2022-11-26T02:45:22.099Z,23.13
2022-11-26T02:47:53.186Z,27.27
2022-11-26T02:50:24.197Z,31.90
2022-11-26T02:52:53.262Z,20.60
2022-11-26T02:55:25.042Z,24.73
2022-11-26T02:57:53.630Z,18.63
2022-11-26T03:00:22.354Z,23.40
2022-11-26T03:02:52.356Z,23.47
2022-11-26T03:05:20.179Z,18.37
2022-11-26T03:07:49.722Z,23.27
2022-11-26T03:10:16.516Z,27.40
2022-11-26T03:12:43.310Z,24.10
2022-11-26T03:15:11.182Z,28.47
2022-11-26T03:17:39.287Z,23.27
2022-11-26T03:20:07.895Z,28.13
2022-11-26T03:22:34.638Z,27.97
2022-11-26T03:25:01.495Z,26.77
2022-11-26T03:27:28.196Z,27.43
2022-11-26T03:29:55.095Z,24.17
2022-11-26T03:32:21.858Z,27.03
2022-11-26T03:34:50.020Z,35.43
2022-11-26T03:37:17.381Z,29.97
2022-11-26T03:39:44.255Z,28.00
2022-11-26T03:42:11.022Z,31.10
2022-11-26T03:44:38.332Z,25.70
2022-11-26T03:47:05.250Z,29.33
2022-11-26T03:49:32.061Z,27.97
2022-11-26T03:52:00.154Z,28.27
2022-11-26T03:54:27.153Z,34.97
2022-11-26T03:56:53.893Z,27.50
2022-11-26T03:59:20.645Z,24.43
2022-11-26T04:01:47.381Z,33.70
2022-11-26T04:04:14.278Z,34.07
2022-11-26T04:06:41.053Z,30.47
2022-11-26T04:09:09.143Z,34.60
2022-11-26T04:11:35.844Z,30.60
2022-11-26T04:14:02.688Z,29.63
2022-11-26T04:16:29.657Z,30.40
2022-11-26T04:18:56.529Z,37.13
2022-11-26T04:21:23.245Z,35.70
2022-11-26T04:23:50.116Z,37.10
2022-11-26T04:26:18.411Z,37.07
2022-11-26T04:28:45.246Z,34.73
2022-11-26T04:31:12.056Z,33.20
2022-11-26T04:33:38.891Z,30.67
2022-11-26T04:36:06.074Z,40.17
2022-11-26T04:38:32.795Z,36.80
2022-11-26T04:40:59.545Z,42.60
2022-11-26T04:43:27.599Z,36.13
2022-11-26T04:45:54.385Z,38.20
2022-11-26T04:48:21.284Z,31.00
2022-11-26T04:50:49.258Z,31.70
2022-11-26T04:53:16.573Z,32.30
2022-11-26T04:55:44.465Z,38.30
2022-11-26T04:58:11.164Z,34.37
2022-11-26T05:00:40.203Z,39.93
2022-11-26T05:03:07.090Z,35.17
2022-11-26T05:05:33.898Z,31.20
2022-11-26T05:08:00.632Z,34.30
2022-11-26T05:10:27.421Z,32.17
2022-11-26T05:12:54.126Z,29.43
2022-11-26T05:15:21.012Z,35.27
2022-11-26T05:17:49.119Z,33.13
2022-11-26T05:20:15.817Z,25.87
2022-11-26T05:22:42.832Z,31.10
2022-11-26T05:25:10.087Z,26.97
2022-11-26T05:27:37.081Z,31.63
2022-11-26T05:30:04.995Z,31.77
2022-11-26T05:32:31.745Z,28.47
2022-11-26T05:35:00.330Z,35.90
2022-11-26T05:37:27.263Z,31.13
2022-11-26T05:39:54.020Z,35.80
2022-11-26T05:42:20.789Z,35.50
2022-11-26T05:44:47.532Z,36.40
2022-11-26T05:47:14.263Z,23.53
2022-11-26T05:49:41.069Z,29.80
2022-11-26T05:52:09.161Z,28.87
2022-11-26T05:54:36.210Z,21.70
2022-11-26T05:57:03.134Z,26.63
2022-11-26T05:59:29.904Z,27.87
2022-11-26T06:01:56.837Z,24.33
2022-11-26T06:04:24.194Z,33.80
2022-11-26T06:06:51.154Z,33.73
2022-11-26T06:09:19.223Z,28.50
2022-11-26T06:11:46.051Z,22.57
2022-11-26T06:14:12.757Z,26.80
2022-11-26T06:16:39.605Z,21.87
2022-11-26T06:19:06.409Z,21.50
2022-11-26T06:21:33.212Z,30.37
2022-11-26T06:24:00.055Z,23.33
2022-11-26T06:26:28.186Z,21.07
2022-11-26T06:28:55.203Z,28.37
2022-11-26T06:31:21.979Z,22.00
2022-11-26T06:33:52.605Z,28.53
2022-11-26T06:36:19.338Z,17.20
2022-11-26T06:38:46.047Z,23.07
2022-11-26T06:41:12.864Z,19.87
2022-11-26T06:43:40.957Z,25.70
2022-11-26T06:46:09.777Z,27.57
2022-11-26T06:48:37.590Z,33.40
2022-11-26T06:51:05.371Z,20.70
2022-11-26T06:53:32.528Z,20.80
2022-11-26T06:56:00.200Z,30.97
2022-11-26T06:58:27.010Z,28.57
2022-11-26T07:00:55.583Z,25.07
2022-11-26T07:03:25.508Z,24.77
2022-11-26T07:05:54.292Z,35.03
2022-11-26T07:08:21.051Z,29.30
2022-11-26T07:10:49.375Z,21.27
2022-11-26T07:13:16.255Z,28.30
2022-11-26T07:15:43.062Z,22.17
2022-11-26T07:18:11.185Z,20.20
2022-11-26T07:20:38.325Z,25.17
2022-11-26T07:23:05.121Z,24.93
2022-11-26T07:25:31.858Z,22.70
2022-11-26T07:27:58.625Z,22.33
2022-11-26T07:30:25.424Z,22.40
2022-11-26T07:32:52.380Z,22.07
2022-11-26T07:35:20.452Z,24.97
2022-11-26T07:37:47.218Z,24.20
2022-11-26T07:40:14.328Z,26.70
2022-11-26T07:42:41.366Z,26.77
2022-11-26T07:45:08.835Z,25.40
2022-11-26T07:47:35.803Z,30.57
2022-11-26T07:50:02.771Z,24.13
2022-11-26T07:52:30.953Z,27.97
2022-11-26T07:54:57.745Z,33.33
2022-11-26T07:57:24.497Z,23.87
2022-11-26T07:59:51.410Z,32.07
2022-11-26T08:02:18.272Z,24.50
2022-11-26T08:04:45.190Z,24.47
2022-11-26T08:07:17.994Z,28.53
2022-11-26T08:09:50.090Z,22.30
2022-11-26T08:12:16.950Z,21.70
2022-11-26T08:14:43.662Z,28.83
2022-11-26T08:17:10.537Z,23.20
2022-11-26T08:19:37.229Z,24.50
2022-11-26T08:22:04.069Z,23.57
2022-11-26T08:24:30.937Z,22.70
2022-11-26T08:26:59.764Z,27.47
2022-11-26T08:29:26.783Z,34.70
2022-11-26T08:31:56.713Z,26.40
2022-11-26T08:34:23.609Z,30.33
2022-11-26T08:36:50.349Z,26.97
2022-11-26T08:39:18.387Z,22.13
2022-11-26T08:41:51.658Z,20.27
2022-11-26T08:44:21.178Z,22.13
2022-11-26T08:46:48.164Z,21.63
2022-11-26T08:49:15.624Z,19.30
2022-11-26T08:51:43.035Z,19.37
2022-11-26T08:54:09.998Z,23.20
2022-11-26T08:56:37.009Z,20.37
2022-11-26T08:59:04.159Z,32.20
2022-11-26T09:01:33.589Z,26.90
2022-11-26T09:04:02.775Z,15.20
2022-11-26T09:06:31.234Z,15.77
2022-11-26T09:08:59.236Z,31.57
2022-11-26T09:11:27.019Z,19.33
2022-11-26T09:13:54.077Z,20.50
2022-11-26T09:16:21.110Z,26.37
2022-11-26T09:18:50.338Z,19.80
2022-11-26T09:21:17.192Z,26.07
2022-11-26T09:23:43.931Z,20.70
2022-11-26T09:26:10.703Z,17.37
2022-11-26T09:28:37.614Z,16.93
2022-11-26T09:31:04.402Z,20.80
2022-11-26T09:33:31.591Z,23.40
2022-11-26T09:36:05.560Z,24.03
2022-11-26T09:38:32.706Z,14.33
2022-11-26T09:41:07.174Z,18.67
2022-11-26T09:43:54.015Z,19.77
2022-11-26T09:46:26.351Z,19.40
2022-11-26T09:49:01.328Z,16.23
2022-11-26T09:51:34.372Z,18.17
2022-11-26T09:54:02.923Z,16.43
2022-11-26T09:56:30.174Z,20.63
2022-11-26T09:58:59.645Z,19.73
2022-11-26T10:01:26.403Z,14.80
2022-11-26T10:03:53.541Z,13.40
2022-11-26T10:06:33.485Z,13.53
2022-11-26T10:09:29.606Z,15.90
2022-11-26T10:12:02.979Z,14.30
2022-11-26T10:14:44.654Z,20.03
2022-11-26T10:17:25.697Z,24.60
2022-11-26T10:20:08.446Z,16.77
2022-11-26T10:22:43.559Z,19.43
2022-11-26T10:25:18.295Z,19.00
2022-11-26T10:27:45.766Z,21.97
2022-11-26T10:30:18.856Z,13.63
2022-11-26T10:32:47.362Z,10.20
2022-11-26T10:35:16.707Z,18.47
2022-11-26T10:37:43.826Z,18.70
2022-11-26T10:40:20.475Z,19.03
2022-11-26T10:42:57.050Z,21.20
2022-11-26T10:45:25.409Z,14.03
2022-11-26T10:47:52.329Z,26.40
2022-11-26T10:50:46.799Z,19.77
2022-11-26T10:53:21.319Z,17.07
2022-11-26T10:55:50.653Z,15.73
2022-11-26T10:58:20.258Z,12.57
2022-11-26T11:00:59.327Z,15.13
2022-11-26T11:03:59.730Z,14.80
2022-11-26T11:06:38.124Z,18.63
2022-11-26T11:09:24.273Z,19.80
2022-11-26T11:12:15.824Z,13.40
2022-11-26T11:14:43.652Z,18.63
2022-11-26T11:17:31.992Z,26.53
2022-11-26T11:20:01.291Z,21.53
2022-11-26T11:22:28.176Z,19.80
2022-11-26T11:24:58.842Z,13.70
2022-11-26T11:27:37.689Z,20.47
2022-11-26T11:30:05.330Z,17.40
2022-11-26T11:32:37.697Z,18.23
2022-11-26T11:35:22.885Z,29.37
2022-11-26T11:37:51.018Z,15.47
2022-11-26T11:40:19.378Z,15.83
2022-11-26T11:42:50.301Z,15.10
2022-11-26T11:45:22.676Z,20.90
2022-11-26T11:47:51.683Z,13.93
2022-11-26T11:50:22.083Z,13.47
2022-11-26T11:53:18.324Z,22.07
2022-11-26T11:56:02.221Z,22.10
2022-11-26T11:58:57.257Z,17.57
2022-11-26T12:01:39.631Z,15.87
2022-11-26T12:04:20.106Z,15.27
2022-11-26T12:07:20.470Z,20.63
2022-11-26T12:09:58.598Z,14.17
2022-11-26T12:12:30.590Z,19.23
2022-11-26T12:15:07.150Z,15.87
2022-11-26T12:17:38.373Z,15.07
2022-11-26T12:20:14.166Z,19.87
2022-11-26T12:22:46.590Z,16.33
2022-11-26T12:25:20.500Z,11.40
2022-11-26T12:27:51.064Z,9.83
2022-11-26T12:30:22.644Z,13.33
2022-11-26T12:32:57.421Z,9.73
2022-11-26T12:35:29.983Z,13.80
2022-11-26T12:37:59.482Z,15.67
2022-11-26T12:40:32.187Z,13.27
2022-11-26T12:43:01.736Z,9.77
2022-11-26T12:45:40.427Z,19.27
2022-11-26T12:48:20.834Z,17.47
2022-11-26T12:50:53.697Z,23.27
2022-11-26T12:53:25.119Z,19.93
2022-11-26T12:55:58.580Z,17.97
2022-11-26T12:58:32.777Z,14.10
2022-11-26T13:01:00.995Z,25.23
2022-11-26T13:03:29.421Z,21.07
2022-11-26T13:06:02.848Z,23.67
2022-11-26T13:08:38.298Z,15.17
2022-11-26T13:11:16.684Z,25.80
2022-11-26T13:13:50.162Z,22.13
2022-11-26T13:16:24.062Z,11.53
2022-11-26T13:18:53.824Z,16.77
2022-11-26T13:21:43.737Z,14.97
2022-11-26T13:24:28.883Z,15.53
2022-11-26T13:27:22.984Z,13.60
2022-11-26T13:30:22.393Z,19.27
2022-11-26T13:33:24.730Z,15.60
2022-11-26T13:36:23.866Z,15.10
2022-11-26T13:39:04.097Z,19.67
2022-11-26T13:41:56.454Z,16.67
2022-11-26T13:44:56.950Z,13.87
2022-11-26T13:47:29.874Z,14.07
2022-11-26T13:50:02.142Z,13.20
2022-11-26T13:52:34.531Z,18.87
2022-11-26T13:55:04.662Z,13.20
2022-11-26T13:57:39.955Z,15.70
2022-11-26T14:00:08.655Z,16.30
2022-11-26T14:02:43.425Z,16.37
2022-11-26T14:05:14.078Z,14.90
2022-11-26T14:07:41.796Z,14.30
2022-11-26T14:10:29.643Z,15.63
2022-11-26T14:13:13.983Z,25.93
2022-11-26T14:15:55.582Z,25.87
2022-11-26T14:18:54.602Z,22.57
2022-11-26T14:21:23.379Z,21.50
2022-11-26T14:23:51.945Z,19.73
2022-11-26T14:26:22.645Z,19.80
2022-11-26T14:28:50.698Z,17.57
2022-11-26T14:31:22.878Z,14.93
2022-11-26T14:33:52.764Z,17.83
2022-11-26T14:36:22.887Z,14.20
2022-11-26T14:39:04.166Z,20.17
2022-11-26T14:41:34.207Z,17.63
2022-11-26T14:44:06.243Z,12.97
2022-11-26T14:46:33.246Z,14.50
2022-11-26T14:49:02.515Z,17.53
2022-11-26T14:51:32.349Z,17.77
2022-11-26T14:54:00.481Z,22.23
2022-11-26T14:56:29.205Z,20.43
2022-11-26T14:58:59.727Z,24.30
2022-11-26T15:01:27.919Z,18.87
2022-11-26T15:03:57.232Z,12.40
2022-11-26T15:06:26.210Z,14.67
2022-11-26T15:09:06.268Z,16.63
2022-11-26T15:11:36.319Z,14.40
2022-11-26T15:14:03.261Z,20.17
2022-11-26T15:16:33.550Z,12.70
2022-11-26T15:19:01.920Z,14.77
2022-11-26T15:21:29.077Z,15.60
2022-11-26T15:23:58.392Z,15.47
2022-11-26T15:26:32.861Z,12.60
2022-11-26T15:28:59.680Z,14.40
2022-11-26T15:31:39.874Z,8.67
2022-11-26T15:34:10.450Z,15.93
2022-11-26T15:36:37.190Z,22.40
2022-11-26T15:39:05.771Z,15.10
2022-11-26T15:41:42.450Z,16.60
2022-11-26T15:44:20.478Z,18.57
2022-11-26T15:46:49.665Z,18.80
2022-11-26T15:49:20.730Z,17.77
2022-11-26T15:51:51.846Z,18.90
2022-11-26T15:54:22.142Z,16.23
2022-11-26T15:56:53.269Z,22.27
2022-11-26T15:59:20.898Z,13.80
2022-11-26T16:01:48.425Z,21.57
2022-11-26T16:04:37.653Z,12.43
2022-11-26T16:07:09.214Z,13.77
2022-11-26T16:09:35.962Z,20.43
2022-11-26T16:12:04.247Z,19.83
2022-11-26T16:14:33.604Z,23.03
2022-11-26T16:17:07.972Z,15.57
2022-11-26T16:19:36.267Z,15.00
2022-11-26T16:22:04.824Z,16.97
2022-11-26T16:24:35.812Z,20.70
2022-11-26T16:27:06.012Z,16.80
2022-11-26T16:29:34.581Z,20.10
2022-11-26T16:32:02.100Z,20.73
2022-11-26T16:34:28.968Z,21.40
2022-11-26T16:37:01.398Z,18.40
2022-11-26T16:39:30.319Z,22.70
2022-11-26T16:41:57.671Z,18.10
2022-11-26T16:44:25.800Z,20.30
2022-11-26T16:46:53.034Z,20.93
2022-11-26T16:49:19.800Z,22.67
2022-11-26T16:51:46.487Z,18.87
2022-11-26T16:54:13.191Z,14.03
2022-11-26T16:56:40.011Z,25.33
2022-11-26T16:59:18.041Z,23.90
2022-11-26T17:01:46.236Z,25.53
2022-11-26T17:04:13.325Z,26.50
2022-11-26T17:06:40.641Z,17.43
2022-11-26T17:09:15.743Z,23.43
2022-11-26T17:11:42.617Z,20.57
2022-11-26T17:14:10.453Z,21.23
2022-11-26T17:16:39.555Z,19.47
2022-11-26T17:19:10.926Z,19.43
2022-11-26T17:21:37.696Z,22.57
2022-11-26T17:24:04.937Z,21.43
2022-11-26T17:26:31.777Z,27.63
2022-11-26T17:28:58.520Z,26.30
2022-11-26T17:31:25.354Z,22.97
2022-11-26T17:33:52.155Z,19.90
2022-11-26T17:36:22.071Z,25.53
2022-11-26T17:38:49.552Z,20.30
2022-11-26T17:41:16.649Z,32.30
2022-11-26T17:43:43.670Z,23.43
2022-11-26T17:46:16.051Z,22.07
2022-11-26T17:48:43.047Z,26.80
2022-11-26T17:51:11.801Z,19.83
2022-11-26T17:53:40.243Z,24.43
2022-11-26T17:56:14.103Z,20.93
2022-11-26T17:58:40.862Z,26.50
2022-11-26T18:01:07.610Z,22.77
2022-11-26T18:03:34.386Z,21.93
2022-11-26T18:06:01.091Z,26.83
2022-11-26T18:08:27.824Z,20.00
2022-11-26T18:10:55.853Z,20.10
2022-11-26T18:13:22.554Z,32.80
2022-11-26T18:15:49.423Z,27.40
2022-11-26T18:18:16.225Z,27.83
2022-11-26T18:20:43.324Z,20.70
2022-11-26T18:23:10.092Z,24.03
2022-11-26T18:25:36.813Z,15.27
2022-11-26T18:28:04.890Z,24.13
2022-11-26T18:30:31.631Z,16.47
2022-11-26T18:32:58.437Z,19.30
2022-11-26T18:35:25.141Z,20.07
2022-11-26T18:37:51.863Z,18.77
2022-11-26T18:40:18.805Z,18.83
2022-11-26T18:42:45.551Z,23.57
2022-11-26T18:45:15.168Z,17.70
2022-11-26T18:47:41.917Z,18.97
2022-11-26T18:50:09.534Z,15.90
2022-11-26T18:52:36.524Z,23.13
2022-11-26T18:55:03.677Z,19.17
2022-11-26T18:57:30.498Z,18.60
2022-11-26T18:59:57.268Z,19.90
2022-11-26T19:02:25.362Z,20.40
2022-11-26T19:04:52.506Z,19.00
2022-11-26T19:07:19.508Z,19.33
2022-11-26T19:09:46.359Z,22.00
2022-11-26T19:12:13.204Z,31.47
2022-11-26T19:14:40.268Z,22.23
2022-11-26T19:17:07.087Z,24.97
2022-11-26T19:19:37.403Z,28.97
2022-11-26T19:22:04.511Z,28.33
2022-11-26T19:24:31.294Z,25.63
2022-11-26T19:26:58.034Z,24.80
2022-11-26T19:29:24.877Z,21.67
2022-11-26T19:31:51.654Z,23.13
2022-11-26T19:34:18.438Z,19.57
2022-11-26T19:36:46.500Z,24.63
2022-11-26T19:39:13.547Z,23.67
2022-11-26T19:41:40.273Z,23.67
2022-11-26T19:44:07.168Z,21.97
2022-11-26T19:46:36.601Z,18.20
2022-11-26T19:49:03.395Z,20.50
2022-11-26T19:51:30.118Z,21.97
2022-11-26T19:53:58.224Z,20.60
2022-11-26T19:56:26.457Z,23.37
2022-11-26T19:58:53.605Z,19.67
2022-11-26T20:01:21.631Z,17.00
2022-11-26T20:03:48.515Z,14.23
2022-11-26T20:06:17.413Z,10.93
2022-11-26T20:08:44.802Z,22.00
2022-11-26T20:11:14.141Z,21.27
2022-11-26T20:13:42.632Z,23.20
2022-11-26T20:16:10.991Z,15.10
2022-11-26T20:18:39.611Z,18.33
2022-11-26T20:21:11.157Z,18.10
2022-11-26T20:23:38.301Z,15.50
2022-11-26T20:26:15.116Z,15.20
2022-11-26T20:28:42.395Z,22.10
2022-11-26T20:31:09.335Z,16.93
2022-11-26T20:33:36.448Z,17.83
2022-11-26T20:36:05.770Z,17.43
2022-11-26T20:38:32.575Z,15.63
2022-11-26T20:40:59.317Z,17.20
2022-11-26T20:43:27.387Z,13.87
2022-11-26T20:45:59.728Z,18.70
2022-11-26T20:48:26.472Z,19.33
2022-11-26T20:50:53.196Z,22.10
2022-11-26T20:53:19.904Z,23.67
2022-11-26T20:55:52.144Z,16.70
2022-11-26T20:58:18.981Z,16.97
2022-11-26T21:00:47.202Z,17.43
2022-11-26T21:03:13.990Z,14.47
2022-11-26T21:05:40.790Z,17.93
2022-11-26T21:08:07.536Z,22.73
2022-11-26T21:10:34.499Z,19.20
2022-11-26T21:13:01.202Z,13.07
2022-11-26T21:15:28.022Z,16.30
2022-11-26T21:17:59.560Z,13.40
2022-11-26T21:20:26.372Z,14.73
2022-11-26T21:22:53.104Z,14.37
2022-11-26T21:25:19.852Z,9.97
2022-11-26T21:27:47.930Z,12.20
2022-11-26T21:30:16.655Z,27.73
2022-11-26T21:32:43.409Z,19.27
2022-11-26T21:35:11.524Z,17.73
2022-11-26T21:37:38.222Z,14.30
2022-11-26T21:40:05.755Z,13.80
2022-11-26T21:42:32.461Z,17.50
2022-11-26T21:44:59.178Z,15.50
2022-11-26T21:47:25.918Z,16.17
2022-11-26T21:49:52.640Z,12.23
2022-11-26T21:52:20.722Z,13.50
2022-11-26T21:54:47.515Z,15.83
2022-11-26T21:57:14.314Z,14.97
2022-11-26T21:59:41.451Z,13.80
2022-11-26T22:02:11.640Z,12.37
2022-11-26T22:04:38.905Z,12.50
2022-11-26T22:07:05.925Z,15.53
2022-11-26T22:09:34.057Z,13.30
2022-11-26T22:12:00.979Z,8.87
2022-11-26T22:14:27.720Z,13.73
2022-11-26T22:16:54.462Z,11.80
2022-11-26T22:19:21.404Z,13.70
2022-11-26T22:21:48.326Z,12.40
2022-11-26T22:24:17.565Z,22.87
2022-11-26T22:26:46.196Z,11.47
2022-11-26T22:29:14.334Z,13.37
2022-11-26T22:31:41.552Z,12.80
2022-11-26T22:34:11.416Z,11.50
2022-11-26T22:36:39.619Z,15.70
2022-11-26T22:39:10.026Z,17.00
2022-11-26T22:41:37.363Z,14.00
2022-11-26T22:44:05.650Z,15.20
2022-11-26T22:46:32.971Z,16.80
2022-11-26T22:49:00.869Z,17.27
2022-11-26T22:51:29.299Z,12.87
2022-11-26T22:53:58.056Z,12.90
2022-11-26T22:56:25.777Z,8.60
2022-11-26T22:58:52.726Z,10.47
2022-11-26T23:01:22.479Z,16.10
2022-11-26T23:03:49.693Z,9.63
2022-11-26T23:06:17.711Z,17.17
2022-11-26T23:08:45.278Z,16.53
2022-11-26T23:11:16.083Z,23.43
2022-11-26T23:13:44.546Z,9.40
2022-11-26T23:16:11.794Z,10.90
2022-11-26T23:18:40.170Z,8.23
2022-11-26T23:21:09.827Z,10.60
2022-11-26T23:23:38.378Z,13.03
2022-11-26T23:26:07.194Z,11.47
2022-11-26T23:28:35.551Z,7.50
2022-11-26T23:31:03.677Z,9.40
2022-11-26T23:33:30.924Z,8.67
2022-11-26T23:35:59.390Z,11.27
2022-11-26T23:38:26.290Z,10.77
2022-11-26T23:40:53.609Z,12.37
2022-11-26T23:43:20.433Z,11.40
2022-11-26T23:45:47.388Z,5.80
2022-11-26T23:48:14.363Z,10.90
2022-11-26T23:50:41.490Z,13.73
2022-11-26T23:53:09.601Z,9.83
2022-11-26T23:55:37.658Z,12.40
2022-11-26T23:58:04.453Z,12.53
